sensor_id;sensor_type;location;lat;lon;timestamp;pressure;altitude;pressure_sealevel;temperature;humidity
61359;BME280;47228;46.762;23.598;2023-04-07T00:01:27;96870.48;;;-0.43;79.75
61359;BME280;47228;46.762;23.598;2023-04-07T00:03:55;96870.80;;;-0.45;79.93
61359;BME280;47228;46.762;23.598;2023-04-07T00:06:24;96874.07;;;-0.46;79.82
61359;BME280;47228;46.762;23.598;2023-04-07T00:08:52;96877.38;;;-0.48;79.79
61359;BME280;47228;46.762;23.598;2023-04-07T00:11:20;96874.35;;;-0.53;79.86
61359;BME280;47228;46.762;23.598;2023-04-07T00:13:48;96875.90;;;-0.54;80.06
61359;BME280;47228;46.762;23.598;2023-04-07T00:16:16;96875.64;;;-0.55;80.34
61359;BME280;47228;46.762;23.598;2023-04-07T00:18:44;96875.63;;;-0.56;80.48
61359;BME280;47228;46.762;23.598;2023-04-07T00:21:12;96873.96;;;-0.58;80.13
61359;BME280;47228;46.762;23.598;2023-04-07T00:23:40;96872.11;;;-0.62;80.02
61359;BME280;47228;46.762;23.598;2023-04-07T00:26:09;96869.46;;;-0.66;80.23
61359;BME280;47228;46.762;23.598;2023-04-07T00:28:37;96869.77;;;-0.68;80.69
61359;BME280;47228;46.762;23.598;2023-04-07T00:31:05;96867.77;;;-0.64;80.83
61359;BME280;47228;46.762;23.598;2023-04-07T00:33:33;96866.61;;;-0.59;80.92
61359;BME280;47228;46.762;23.598;2023-04-07T00:36:01;96866.08;;;-0.57;80.72
61359;BME280;47228;46.762;23.598;2023-04-07T00:38:29;96866.02;;;-0.59;80.63
61359;BME280;47228;46.762;23.598;2023-04-07T00:40:58;96863.93;;;-0.60;80.63
61359;BME280;47228;46.762;23.598;2023-04-07T00:43:26;96860.54;;;-0.65;80.56
61359;BME280;47228;46.762;23.598;2023-04-07T00:45:54;96861.73;;;-0.69;80.41
61359;BME280;47228;46.762;23.598;2023-04-07T00:48:23;96863.04;;;-0.72;80.71
61359;BME280;47228;46.762;23.598;2023-04-07T00:50:51;96863.21;;;-0.73;80.95
61359;BME280;47228;46.762;23.598;2023-04-07T00:53:19;96861.95;;;-0.73;81.55
61359;BME280;47228;46.762;23.598;2023-04-07T00:55:47;96863.36;;;-0.70;81.87
61359;BME280;47228;46.762;23.598;2023-04-07T00:58:16;96861.97;;;-0.66;81.78
61359;BME280;47228;46.762;23.598;2023-04-07T01:00:52;96861.72;;;-0.65;81.61
61359;BME280;47228;46.762;23.598;2023-04-07T01:06:27;96861.52;;;-0.63;82.02
61359;BME280;47228;46.762;23.598;2023-04-07T01:12:04;96860.79;;;-0.53;82.33
61359;BME280;47228;46.762;23.598;2023-04-07T01:14:41;96861.74;;;-0.48;82.25
61359;BME280;47228;46.762;23.598;2023-04-07T01:17:14;96859.88;;;-0.47;81.81
61359;BME280;47228;46.762;23.598;2023-04-07T01:19:46;96857.59;;;-0.47;81.58
61359;BME280;47228;46.762;23.598;2023-04-07T01:22:18;96861.21;;;-0.46;81.54
61359;BME280;47228;46.762;23.598;2023-04-07T01:27:42;96860.27;;;-0.44;81.79
61359;BME280;47228;46.762;23.598;2023-04-07T01:30:16;96861.19;;;-0.42;81.77
61359;BME280;47228;46.762;23.598;2023-04-07T01:32:49;96864.44;;;-0.42;81.71
61359;BME280;47228;46.762;23.598;2023-04-07T01:35:19;96863.48;;;-0.41;81.73
61359;BME280;47228;46.762;23.598;2023-04-07T01:37:50;96863.30;;;-0.39;81.78
61359;BME280;47228;46.762;23.598;2023-04-07T01:40:20;96860.64;;;-0.36;81.94
61359;BME280;47228;46.762;23.598;2023-04-07T01:42:48;96862.48;;;-0.35;81.66
61359;BME280;47228;46.762;23.598;2023-04-07T01:45:17;96858.64;;;-0.34;81.95
61359;BME280;47228;46.762;23.598;2023-04-07T01:47:45;96861.22;;;-0.31;81.98
61359;BME280;47228;46.762;23.598;2023-04-07T01:50:13;96861.45;;;-0.28;82.03
61359;BME280;47228;46.762;23.598;2023-04-07T01:52:43;96862.69;;;-0.27;81.75
61359;BME280;47228;46.762;23.598;2023-04-07T01:55:11;96857.88;;;-0.27;81.69
61359;BME280;47228;46.762;23.598;2023-04-07T01:57:39;96860.56;;;-0.28;81.32
61359;BME280;47228;46.762;23.598;2023-04-07T02:00:07;96860.73;;;-0.30;81.40
61359;BME280;47228;46.762;23.598;2023-04-07T02:02:40;96862.41;;;-0.30;81.60
61359;BME280;47228;46.762;23.598;2023-04-07T02:05:12;96858.81;;;-0.28;81.47
61359;BME280;47228;46.762;23.598;2023-04-07T02:07:52;96859.17;;;-0.27;81.66
61359;BME280;47228;46.762;23.598;2023-04-07T02:10:23;96864.12;;;-0.25;81.24
61359;BME280;47228;46.762;23.598;2023-04-07T02:12:53;96864.70;;;-0.26;81.06
61359;BME280;47228;46.762;23.598;2023-04-07T02:15:22;96864.67;;;-0.29;80.90
61359;BME280;47228;46.762;23.598;2023-04-07T02:17:52;96860.41;;;-0.36;80.52
61359;BME280;47228;46.762;23.598;2023-04-07T02:20:21;96863.80;;;-0.42;80.63
61359;BME280;47228;46.762;23.598;2023-04-07T02:22:50;96862.17;;;-0.47;80.75
61359;BME280;47228;46.762;23.598;2023-04-07T02:25:26;96863.75;;;-0.49;81.03
61359;BME280;47228;46.762;23.598;2023-04-07T02:27:56;96862.75;;;-0.52;80.94
61359;BME280;47228;46.762;23.598;2023-04-07T02:30:25;96862.59;;;-0.56;81.13
61359;BME280;47228;46.762;23.598;2023-04-07T02:32:53;96865.48;;;-0.57;81.45
61359;BME280;47228;46.762;23.598;2023-04-07T02:35:22;96865.88;;;-0.55;81.52
61359;BME280;47228;46.762;23.598;2023-04-07T02:37:50;96866.27;;;-0.56;81.49
61359;BME280;47228;46.762;23.598;2023-04-07T02:40:18;96869.39;;;-0.56;81.23
61359;BME280;47228;46.762;23.598;2023-04-07T02:42:46;96867.39;;;-0.57;81.12
61359;BME280;47228;46.762;23.598;2023-04-07T02:45:14;96871.17;;;-0.56;81.33
61359;BME280;47228;46.762;23.598;2023-04-07T02:47:42;96869.80;;;-0.55;81.43
61359;BME280;47228;46.762;23.598;2023-04-07T02:50:10;96872.87;;;-0.54;81.34
61359;BME280;47228;46.762;23.598;2023-04-07T02:52:38;96873.27;;;-0.54;81.36
61359;BME280;47228;46.762;23.598;2023-04-07T02:55:06;96874.48;;;-0.55;81.65
61359;BME280;47228;46.762;23.598;2023-04-07T02:57:35;96872.73;;;-0.54;81.54
61359;BME280;47228;46.762;23.598;2023-04-07T03:00:03;96874.20;;;-0.55;81.55
61359;BME280;47228;46.762;23.598;2023-04-07T03:02:32;96876.98;;;-0.55;81.67
61359;BME280;47228;46.762;23.598;2023-04-07T03:05:00;96875.45;;;-0.54;81.86
61359;BME280;47228;46.762;23.598;2023-04-07T03:07:30;96877.24;;;-0.54;81.63
61359;BME280;47228;46.762;23.598;2023-04-07T03:09:58;96879.52;;;-0.54;81.58
61359;BME280;47228;46.762;23.598;2023-04-07T03:12:26;96879.55;;;-0.55;81.71
61359;BME280;47228;46.762;23.598;2023-04-07T03:14:54;96881.12;;;-0.56;81.38
61359;BME280;47228;46.762;23.598;2023-04-07T03:17:22;96885.02;;;-0.61;81.45
61359;BME280;47228;46.762;23.598;2023-04-07T03:19:50;96887.98;;;-0.65;81.49
61359;BME280;47228;46.762;23.598;2023-04-07T03:22:18;96884.73;;;-0.65;81.77
61359;BME280;47228;46.762;23.598;2023-04-07T03:24:46;96890.60;;;-0.65;82.06
61359;BME280;47228;46.762;23.598;2023-04-07T03:27:14;96891.31;;;-0.65;81.92
61359;BME280;47228;46.762;23.598;2023-04-07T03:29:44;96894.29;;;-0.65;82.11
61359;BME280;47228;46.762;23.598;2023-04-07T03:32:12;96892.48;;;-0.67;82.05
61359;BME280;47228;46.762;23.598;2023-04-07T03:34:40;96892.82;;;-0.68;82.06
61359;BME280;47228;46.762;23.598;2023-04-07T03:37:09;96896.56;;;-0.71;82.13
61359;BME280;47228;46.762;23.598;2023-04-07T03:39:36;96897.17;;;-0.72;82.33
61359;BME280;47228;46.762;23.598;2023-04-07T03:42:05;96900.64;;;-0.72;82.39
61359;BME280;47228;46.762;23.598;2023-04-07T03:44:33;96905.88;;;-0.72;82.56
61359;BME280;47228;46.762;23.598;2023-04-07T03:47:01;96908.80;;;-0.72;82.79
61359;BME280;47228;46.762;23.598;2023-04-07T03:49:29;96911.80;;;-0.70;83.00
61359;BME280;47228;46.762;23.598;2023-04-07T03:51:58;96912.36;;;-0.69;83.05
61359;BME280;47228;46.762;23.598;2023-04-07T03:54:26;96916.27;;;-0.68;82.94
61359;BME280;47228;46.762;23.598;2023-04-07T03:56:53;96920.83;;;-0.69;82.85
61359;BME280;47228;46.762;23.598;2023-04-07T03:59:23;96922.68;;;-0.68;82.89
61359;BME280;47228;46.762;23.598;2023-04-07T04:01:51;96921.21;;;-0.67;83.02
61359;BME280;47228;46.762;23.598;2023-04-07T04:04:19;96920.89;;;-0.65;82.90
61359;BME280;47228;46.762;23.598;2023-04-07T04:06:47;96920.40;;;-0.63;83.04
61359;BME280;47228;46.762;23.598;2023-04-07T04:09:16;96922.00;;;-0.62;83.00
61359;BME280;47228;46.762;23.598;2023-04-07T04:11:44;96923.73;;;-0.62;82.98
61359;BME280;47228;46.762;23.598;2023-04-07T04:14:12;96924.12;;;-0.62;82.98
61359;BME280;47228;46.762;23.598;2023-04-07T04:16:40;96925.09;;;-0.63;83.03
61359;BME280;47228;46.762;23.598;2023-04-07T04:19:08;96926.25;;;-0.67;82.90
61359;BME280;47228;46.762;23.598;2023-04-07T04:21:36;96922.64;;;-0.71;82.89
61359;BME280;47228;46.762;23.598;2023-04-07T04:24:04;96925.79;;;-0.73;83.04
61359;BME280;47228;46.762;23.598;2023-04-07T04:26:32;96932.77;;;-0.74;83.08
61359;BME280;47228;46.762;23.598;2023-04-07T04:29:00;96935.29;;;-0.74;83.04
61359;BME280;47228;46.762;23.598;2023-04-07T04:31:29;96936.73;;;-0.77;82.97
61359;BME280;47228;46.762;23.598;2023-04-07T04:33:58;96932.50;;;-0.78;83.21
61359;BME280;47228;46.762;23.598;2023-04-07T04:36:26;96935.48;;;-0.79;83.36
61359;BME280;47228;46.762;23.598;2023-04-07T04:38:54;96936.70;;;-0.79;83.43
61359;BME280;47228;46.762;23.598;2023-04-07T04:41:22;96937.40;;;-0.76;83.44
61359;BME280;47228;46.762;23.598;2023-04-07T04:43:50;96935.98;;;-0.74;83.43
61359;BME280;47228;46.762;23.598;2023-04-07T04:46:18;96936.75;;;-0.71;83.69
61359;BME280;47228;46.762;23.598;2023-04-07T04:48:46;96936.85;;;-0.67;83.85
61359;BME280;47228;46.762;23.598;2023-04-07T04:51:14;96942.10;;;-0.61;83.76
61359;BME280;47228;46.762;23.598;2023-04-07T04:53:42;96943.73;;;-0.57;84.01
61359;BME280;47228;46.762;23.598;2023-04-07T04:56:11;96943.79;;;-0.52;83.79
61359;BME280;47228;46.762;23.598;2023-04-07T04:58:39;96944.86;;;-0.48;83.71
61359;BME280;47228;46.762;23.598;2023-04-07T05:01:08;96943.23;;;-0.43;83.71
61359;BME280;47228;46.762;23.598;2023-04-07T05:03:36;96943.56;;;-0.39;83.61
61359;BME280;47228;46.762;23.598;2023-04-07T05:06:05;96944.61;;;-0.36;83.42
61359;BME280;47228;46.762;23.598;2023-04-07T05:08:33;96945.38;;;-0.34;83.29
61359;BME280;47228;46.762;23.598;2023-04-07T05:11:01;96940.56;;;-0.31;83.27
61359;BME280;47228;46.762;23.598;2023-04-07T05:13:29;96948.88;;;-0.29;83.20
61359;BME280;47228;46.762;23.598;2023-04-07T05:15:57;96954.71;;;-0.26;83.33
61359;BME280;47228;46.762;23.598;2023-04-07T05:18:25;96957.89;;;-0.23;83.29
61359;BME280;47228;46.762;23.598;2023-04-07T05:20:53;96956.95;;;-0.20;83.21
61359;BME280;47228;46.762;23.598;2023-04-07T05:23:22;96959.86;;;-0.16;83.02
61359;BME280;47228;46.762;23.598;2023-04-07T05:25:50;96962.64;;;-0.12;82.89
61359;BME280;47228;46.762;23.598;2023-04-07T05:28:18;96963.42;;;-0.09;82.82
61359;BME280;47228;46.762;23.598;2023-04-07T05:30:47;96961.58;;;-0.08;82.49
61359;BME280;47228;46.762;23.598;2023-04-07T05:33:15;96965.39;;;-0.08;82.39
61359;BME280;47228;46.762;23.598;2023-04-07T05:35:43;96966.01;;;-0.07;82.47
61359;BME280;47228;46.762;23.598;2023-04-07T05:38:12;96967.71;;;-0.07;82.19
61359;BME280;47228;46.762;23.598;2023-04-07T05:40:41;96970.12;;;-0.07;81.93
61359;BME280;47228;46.762;23.598;2023-04-07T05:43:09;96974.27;;;-0.06;82.05
61359;BME280;47228;46.762;23.598;2023-04-07T05:45:37;96979.14;;;-0.06;82.19
61359;BME280;47228;46.762;23.598;2023-04-07T05:48:05;96977.84;;;-0.05;82.31
61359;BME280;47228;46.762;23.598;2023-04-07T05:50:33;96979.86;;;-0.03;82.27
61359;BME280;47228;46.762;23.598;2023-04-07T05:53:01;96975.66;;;0.01;82.31
61359;BME280;47228;46.762;23.598;2023-04-07T05:55:29;96976.77;;;0.06;82.15
61359;BME280;47228;46.762;23.598;2023-04-07T05:57:58;96980.30;;;0.13;82.39
61359;BME280;47228;46.762;23.598;2023-04-07T06:00:26;96983.84;;;0.20;82.67
61359;BME280;47228;46.762;23.598;2023-04-07T06:02:54;96985.28;;;0.27;82.84
61359;BME280;47228;46.762;23.598;2023-04-07T06:05:23;96987.38;;;0.30;82.74
61359;BME280;47228;46.762;23.598;2023-04-07T06:07:52;96989.03;;;0.33;82.60
61359;BME280;47228;46.762;23.598;2023-04-07T06:10:21;96990.10;;;0.34;82.65
61359;BME280;47228;46.762;23.598;2023-04-07T06:12:49;96991.02;;;0.36;82.50
61359;BME280;47228;46.762;23.598;2023-04-07T06:15:17;96989.12;;;0.37;82.54
61359;BME280;47228;46.762;23.598;2023-04-07T06:17:45;96994.54;;;0.41;82.49
61359;BME280;47228;46.762;23.598;2023-04-07T06:20:13;96993.20;;;0.44;82.56
61359;BME280;47228;46.762;23.598;2023-04-07T06:22:41;96995.98;;;0.45;82.28
61359;BME280;47228;46.762;23.598;2023-04-07T06:25:09;96996.92;;;0.42;82.03
61359;BME280;47228;46.762;23.598;2023-04-07T06:27:37;96996.20;;;0.40;81.85
61359;BME280;47228;46.762;23.598;2023-04-07T06:30:05;96997.45;;;0.38;81.45
61359;BME280;47228;46.762;23.598;2023-04-07T06:32:34;96999.12;;;0.39;81.78
61359;BME280;47228;46.762;23.598;2023-04-07T06:35:02;96999.27;;;0.39;81.43
61359;BME280;47228;46.762;23.598;2023-04-07T06:37:30;97002.09;;;0.42;81.61
61359;BME280;47228;46.762;23.598;2023-04-07T06:39:58;97001.58;;;0.48;81.85
61359;BME280;47228;46.762;23.598;2023-04-07T06:42:26;97004.77;;;0.53;81.62
61359;BME280;47228;46.762;23.598;2023-04-07T06:44:53;97001.58;;;0.55;81.63
61359;BME280;47228;46.762;23.598;2023-04-07T06:47:22;97002.88;;;0.60;81.77
61359;BME280;47228;46.762;23.598;2023-04-07T06:49:51;97007.19;;;0.64;81.83
61359;BME280;47228;46.762;23.598;2023-04-07T06:52:19;97009.12;;;0.69;81.65
61359;BME280;47228;46.762;23.598;2023-04-07T06:54:47;97010.93;;;0.77;81.67
61359;BME280;47228;46.762;23.598;2023-04-07T06:57:15;97014.38;;;0.83;81.36
61359;BME280;47228;46.762;23.598;2023-04-07T06:59:44;97016.31;;;0.91;81.36
61359;BME280;47228;46.762;23.598;2023-04-07T07:02:12;97019.89;;;0.97;81.33
61359;BME280;47228;46.762;23.598;2023-04-07T07:04:40;97023.67;;;1.05;80.94
61359;BME280;47228;46.762;23.598;2023-04-07T07:07:08;97024.03;;;1.11;80.59
61359;BME280;47228;46.762;23.598;2023-04-07T07:09:36;97027.31;;;1.17;80.39
61359;BME280;47228;46.762;23.598;2023-04-07T07:12:04;97026.42;;;1.25;80.07
61359;BME280;47228;46.762;23.598;2023-04-07T07:14:33;97024.36;;;1.30;79.76
61359;BME280;47228;46.762;23.598;2023-04-07T07:17:01;97027.75;;;1.36;79.87
61359;BME280;47228;46.762;23.598;2023-04-07T07:19:29;97029.11;;;1.44;79.90
61359;BME280;47228;46.762;23.598;2023-04-07T07:21:56;97029.91;;;1.51;79.65
61359;BME280;47228;46.762;23.598;2023-04-07T07:24:24;97032.15;;;1.59;79.23
61359;BME280;47228;46.762;23.598;2023-04-07T07:26:52;97034.38;;;1.64;79.30
61359;BME280;47228;46.762;23.598;2023-04-07T07:29:20;97038.69;;;1.69;79.00
61359;BME280;47228;46.762;23.598;2023-04-07T07:31:48;97038.77;;;1.72;78.63
61359;BME280;47228;46.762;23.598;2023-04-07T07:34:16;97037.35;;;1.75;78.49
61359;BME280;47228;46.762;23.598;2023-04-07T07:36:44;97040.11;;;1.83;78.55
61359;BME280;47228;46.762;23.598;2023-04-07T07:39:12;97042.33;;;1.92;78.55
61359;BME280;47228;46.762;23.598;2023-04-07T07:41:41;97045.24;;;1.99;78.02
61359;BME280;47228;46.762;23.598;2023-04-07T07:44:09;97046.64;;;2.06;77.33
61359;BME280;47228;46.762;23.598;2023-04-07T07:46:37;97045.27;;;2.10;76.95
61359;BME280;47228;46.762;23.598;2023-04-07T07:49:05;97046.34;;;2.11;76.57
61359;BME280;47228;46.762;23.598;2023-04-07T07:51:33;97046.90;;;2.12;76.51
61359;BME280;47228;46.762;23.598;2023-04-07T07:54:01;97049.12;;;2.11;76.19
61359;BME280;47228;46.762;23.598;2023-04-07T07:56:29;97049.81;;;2.11;75.94
61359;BME280;47228;46.762;23.598;2023-04-07T07:58:57;97050.63;;;2.10;75.99
61359;BME280;47228;46.762;23.598;2023-04-07T08:01:25;97054.13;;;2.10;75.92
61359;BME280;47228;46.762;23.598;2023-04-07T08:03:53;97053.45;;;2.13;76.08
61359;BME280;47228;46.762;23.598;2023-04-07T08:06:22;97053.44;;;2.18;76.14
61359;BME280;47228;46.762;23.598;2023-04-07T08:08:50;97051.58;;;2.23;76.10
61359;BME280;47228;46.762;23.598;2023-04-07T08:11:18;97054.64;;;2.31;75.73
61359;BME280;47228;46.762;23.598;2023-04-07T08:13:45;97060.33;;;2.35;75.60
61359;BME280;47228;46.762;23.598;2023-04-07T08:16:14;97060.80;;;2.41;75.47
61359;BME280;47228;46.762;23.598;2023-04-07T08:18:42;97059.89;;;2.48;75.37
61359;BME280;47228;46.762;23.598;2023-04-07T08:21:10;97062.89;;;2.58;74.88
61359;BME280;47228;46.762;23.598;2023-04-07T08:23:39;97061.17;;;2.63;74.10
61359;BME280;47228;46.762;23.598;2023-04-07T08:26:07;97059.44;;;2.65;74.77
61359;BME280;47228;46.762;23.598;2023-04-07T08:28:35;97057.44;;;2.69;74.89
61359;BME280;47228;46.762;23.598;2023-04-07T08:31:03;97059.16;;;2.73;74.61
61359;BME280;47228;46.762;23.598;2023-04-07T08:33:31;97059.55;;;2.75;74.15
61359;BME280;47228;46.762;23.598;2023-04-07T08:35:59;97061.02;;;2.80;74.42
61359;BME280;47228;46.762;23.598;2023-04-07T08:38:27;97055.48;;;2.86;74.25
61359;BME280;47228;46.762;23.598;2023-04-07T08:41:17;97057.30;;;2.92;74.44
61359;BME280;47228;46.762;23.598;2023-04-07T08:43:47;97058.68;;;3.02;74.51
61359;BME280;47228;46.762;23.598;2023-04-07T08:46:20;97059.98;;;3.12;74.26
61359;BME280;47228;46.762;23.598;2023-04-07T08:48:50;97056.23;;;3.19;73.77
61359;BME280;47228;46.762;23.598;2023-04-07T08:51:30;97057.13;;;3.27;73.18
61359;BME280;47228;46.762;23.598;2023-04-07T08:54:12;97053.98;;;3.34;72.33
61359;BME280;47228;46.762;23.598;2023-04-07T08:56:41;97055.23;;;3.35;71.97
61359;BME280;47228;46.762;23.598;2023-04-07T08:59:14;97055.31;;;3.36;71.66
61359;BME280;47228;46.762;23.598;2023-04-07T09:01:42;97054.75;;;3.36;71.08
61359;BME280;47228;46.762;23.598;2023-04-07T09:04:11;97055.05;;;3.37;71.13
61359;BME280;47228;46.762;23.598;2023-04-07T09:06:39;97055.41;;;3.38;70.66
61359;BME280;47228;46.762;23.598;2023-04-07T09:09:07;97059.48;;;3.43;71.08
61359;BME280;47228;46.762;23.598;2023-04-07T09:11:38;97058.02;;;3.47;70.60
61359;BME280;47228;46.762;23.598;2023-04-07T09:14:06;97058.14;;;3.51;70.56
61359;BME280;47228;46.762;23.598;2023-04-07T09:16:34;97057.83;;;3.54;69.24
61359;BME280;47228;46.762;23.598;2023-04-07T09:19:02;97060.16;;;3.58;69.62
61359;BME280;47228;46.762;23.598;2023-04-07T09:21:50;97062.10;;;3.61;69.21
61359;BME280;47228;46.762;23.598;2023-04-07T09:24:26;97061.48;;;3.62;69.25
61359;BME280;47228;46.762;23.598;2023-04-07T09:27:15;97059.20;;;3.64;68.98
61359;BME280;47228;46.762;23.598;2023-04-07T09:29:46;97061.04;;;3.68;69.14
61359;BME280;47228;46.762;23.598;2023-04-07T09:32:34;97060.58;;;3.71;68.54
61359;BME280;47228;46.762;23.598;2023-04-07T09:35:03;97058.04;;;3.73;68.75
61359;BME280;47228;46.762;23.598;2023-04-07T09:37:31;97061.87;;;3.77;69.00
61359;BME280;47228;46.762;23.598;2023-04-07T09:40:00;97064.52;;;3.83;68.79
61359;BME280;47228;46.762;23.598;2023-04-07T09:42:28;97064.44;;;3.90;68.35
61359;BME280;47228;46.762;23.598;2023-04-07T09:45:01;97067.23;;;3.95;68.12
61359;BME280;47228;46.762;23.598;2023-04-07T09:47:31;97067.93;;;3.98;68.00
61359;BME280;47228;46.762;23.598;2023-04-07T09:49:59;97063.30;;;4.01;67.29
61359;BME280;47228;46.762;23.598;2023-04-07T09:52:50;97063.30;;;4.06;67.41
61359;BME280;47228;46.762;23.598;2023-04-07T09:55:22;97062.80;;;4.06;67.50
61359;BME280;47228;46.762;23.598;2023-04-07T09:57:51;97059.38;;;4.06;67.56
61359;BME280;47228;46.762;23.598;2023-04-07T10:00:19;97061.31;;;4.08;67.54
61359;BME280;47228;46.762;23.598;2023-04-07T10:02:48;97064.31;;;4.06;66.69
61359;BME280;47228;46.762;23.598;2023-04-07T10:05:18;97063.86;;;4.00;66.81
61359;BME280;47228;46.762;23.598;2023-04-07T10:07:48;97070.05;;;3.95;66.49
61359;BME280;47228;46.762;23.598;2023-04-07T10:10:17;97068.90;;;3.93;67.18
61359;BME280;47228;46.762;23.598;2023-04-07T10:12:46;97068.55;;;3.89;67.26
61359;BME280;47228;46.762;23.598;2023-04-07T10:15:16;97071.67;;;3.86;67.25
61359;BME280;47228;46.762;23.598;2023-04-07T10:17:46;97071.88;;;3.84;67.44
61359;BME280;47228;46.762;23.598;2023-04-07T10:20:18;97073.42;;;3.86;67.51
61359;BME280;47228;46.762;23.598;2023-04-07T10:22:50;97076.40;;;3.88;67.10
61359;BME280;47228;46.762;23.598;2023-04-07T10:25:21;97080.02;;;3.92;67.82
61359;BME280;47228;46.762;23.598;2023-04-07T10:30:24;97079.90;;;4.08;67.28
61359;BME280;47228;46.762;23.598;2023-04-07T10:32:53;97078.98;;;4.10;66.35
61359;BME280;47228;46.762;23.598;2023-04-07T10:35:22;97080.64;;;4.15;66.67
61359;BME280;47228;46.762;23.598;2023-04-07T10:40:35;97078.60;;;4.44;67.16
61359;BME280;47228;46.762;23.598;2023-04-07T10:43:05;97080.88;;;4.57;66.13
61359;BME280;47228;46.762;23.598;2023-04-07T10:48:19;97079.59;;;4.67;65.74
61359;BME280;47228;46.762;23.598;2023-04-07T10:53:34;97077.50;;;4.81;65.81
61359;BME280;47228;46.762;23.598;2023-04-07T10:56:03;97074.19;;;4.86;65.67
61359;BME280;47228;46.762;23.598;2023-04-07T10:58:32;97076.80;;;4.93;65.34
61359;BME280;47228;46.762;23.598;2023-04-07T11:03:36;97075.31;;;5.15;65.30
61359;BME280;47228;46.762;23.598;2023-04-07T11:06:09;97079.62;;;5.22;64.77
61359;BME280;47228;46.762;23.598;2023-04-07T11:08:45;97082.02;;;5.23;64.03
61359;BME280;47228;46.762;23.598;2023-04-07T11:11:33;97082.60;;;5.23;63.81
61359;BME280;47228;46.762;23.598;2023-04-07T11:14:03;97082.35;;;5.25;64.00
61359;BME280;47228;46.762;23.598;2023-04-07T11:16:42;97082.71;;;5.28;63.62
61359;BME280;47228;46.762;23.598;2023-04-07T11:19:10;97084.34;;;5.28;63.62
61359;BME280;47228;46.762;23.598;2023-04-07T11:21:38;97086.35;;;5.27;64.14
61359;BME280;47228;46.762;23.598;2023-04-07T11:24:06;97086.69;;;5.32;64.01
61359;BME280;47228;46.762;23.598;2023-04-07T11:26:39;97086.05;;;5.42;64.17
61359;BME280;47228;46.762;23.598;2023-04-07T11:29:07;97085.42;;;5.54;63.65
61359;BME280;47228;46.762;23.598;2023-04-07T11:31:35;97086.59;;;5.61;63.33
61359;BME280;47228;46.762;23.598;2023-04-07T11:34:04;97086.39;;;5.61;62.13
61359;BME280;47228;46.762;23.598;2023-04-07T11:36:37;97091.58;;;5.59;62.17
61359;BME280;47228;46.762;23.598;2023-04-07T11:39:17;97089.32;;;5.52;61.73
61359;BME280;47228;46.762;23.598;2023-04-07T11:41:48;97086.35;;;5.44;61.97
61359;BME280;47228;46.762;23.598;2023-04-07T11:44:16;97091.06;;;5.45;62.57
61359;BME280;47228;46.762;23.598;2023-04-07T11:46:55;97093.01;;;5.49;62.68
61359;BME280;47228;46.762;23.598;2023-04-07T11:49:25;97090.56;;;5.57;63.09
61359;BME280;47228;46.762;23.598;2023-04-07T11:52:05;97091.98;;;5.66;63.08
61359;BME280;47228;46.762;23.598;2023-04-07T11:54:43;97092.75;;;5.74;62.87
61359;BME280;47228;46.762;23.598;2023-04-07T11:57:25;97093.69;;;5.80;62.60
61359;BME280;47228;46.762;23.598;2023-04-07T12:00:08;97090.82;;;5.80;62.31
61359;BME280;47228;46.762;23.598;2023-04-07T12:02:36;97089.73;;;5.81;62.75
61359;BME280;47228;46.762;23.598;2023-04-07T12:05:05;97091.16;;;5.82;62.53
61359;BME280;47228;46.762;23.598;2023-04-07T12:07:33;97089.80;;;5.86;62.97
61359;BME280;47228;46.762;23.598;2023-04-07T12:10:20;97092.13;;;5.92;62.60
61359;BME280;47228;46.762;23.598;2023-04-07T12:12:48;97092.56;;;5.96;62.83
61359;BME280;47228;46.762;23.598;2023-04-07T12:15:16;97095.23;;;5.96;62.54
61359;BME280;47228;46.762;23.598;2023-04-07T12:17:45;97092.73;;;5.98;62.86
61359;BME280;47228;46.762;23.598;2023-04-07T12:20:15;97096.20;;;6.03;62.78
61359;BME280;47228;46.762;23.598;2023-04-07T12:22:43;97096.88;;;6.11;62.09
61359;BME280;47228;46.762;23.598;2023-04-07T12:25:11;97098.95;;;6.17;62.08
61359;BME280;47228;46.762;23.598;2023-04-07T12:27:39;97095.95;;;6.23;62.02
61359;BME280;47228;46.762;23.598;2023-04-07T12:30:11;97097.69;;;6.25;61.52
61359;BME280;47228;46.762;23.598;2023-04-07T12:32:39;97100.44;;;6.21;61.25
61359;BME280;47228;46.762;23.598;2023-04-07T12:35:08;97099.87;;;6.18;61.30
61359;BME280;47228;46.762;23.598;2023-04-07T12:37:35;97101.84;;;6.14;61.55
61359;BME280;47228;46.762;23.598;2023-04-07T12:40:04;97103.30;;;6.08;61.73
61359;BME280;47228;46.762;23.598;2023-04-07T12:42:32;97102.98;;;5.99;61.93
61359;BME280;47228;46.762;23.598;2023-04-07T12:45:00;97105.55;;;5.87;61.60
61359;BME280;47228;46.762;23.598;2023-04-07T12:47:29;97102.54;;;5.78;62.29
61359;BME280;47228;46.762;23.598;2023-04-07T12:49:58;97107.52;;;5.70;62.54
61359;BME280;47228;46.762;23.598;2023-04-07T12:52:27;97105.10;;;5.60;62.30
61359;BME280;47228;46.762;23.598;2023-04-07T12:54:55;97105.30;;;5.55;62.73
61359;BME280;47228;46.762;23.598;2023-04-07T12:57:23;97106.45;;;5.56;63.10
61359;BME280;47228;46.762;23.598;2023-04-07T12:59:51;97107.21;;;5.60;63.53
61359;BME280;47228;46.762;23.598;2023-04-07T13:02:21;97106.81;;;5.64;63.19
61359;BME280;47228;46.762;23.598;2023-04-07T13:04:49;97105.19;;;5.63;62.92
61359;BME280;47228;46.762;23.598;2023-04-07T13:07:17;97107.55;;;5.59;62.78
61359;BME280;47228;46.762;23.598;2023-04-07T13:09:45;97110.89;;;5.55;63.04
61359;BME280;47228;46.762;23.598;2023-04-07T13:12:13;97112.26;;;5.47;62.67
61359;BME280;47228;46.762;23.598;2023-04-07T13:14:41;97112.30;;;5.35;63.06
61359;BME280;47228;46.762;23.598;2023-04-07T13:17:26;97115.09;;;5.28;63.36
61359;BME280;47228;46.762;23.598;2023-04-07T13:19:55;97111.73;;;5.19;63.36
61359;BME280;47228;46.762;23.598;2023-04-07T13:22:23;97118.45;;;5.12;63.72
61359;BME280;47228;46.762;23.598;2023-04-07T13:24:51;97124.84;;;5.10;63.97
61359;BME280;47228;46.762;23.598;2023-04-07T13:27:19;97124.09;;;5.09;64.11
61359;BME280;47228;46.762;23.598;2023-04-07T13:29:47;97125.60;;;5.08;64.27